Time;durP1;ratioP1;P1;durP2;ratioP2;P2;SDS_P1;SDS_P2;PMS_P1;PMS_P2;Temp;Humidity;BMP_temperature;BMP_pressure;BME280_temperature;BME280_humidity;BME280_pressure;Samples;Min_cycle;Max_cycle;Signal;HPM_P1;HPM_P2
2022/06/03 00:01:26;;;;;;;13.55;6.75;;;13.80;99.90;;;;;;5036045;28;20490;-95
2022/06/03 00:04:01;;;;;;;8.90;6.15;;;13.80;99.90;;;;;;5017952;28;20167;-94
2022/06/03 00:06:41;;;;;;;8.23;4.90;;;13.70;99.90;;;;;;5017785;28;20030;-93
2022/06/03 00:09:19;;;;;;;16.17;5.32;;;13.70;99.90;;;;;;5017958;28;20033;-92
2022/06/03 00:12:13;;;;;;;10.02;5.72;;;13.70;99.90;;;;;;5017569;28;20093;-94
2022/06/03 00:14:58;;;;;;;9.27;5.18;;;13.70;99.90;;;;;;5017686;28;20506;-93
2022/06/03 00:17:39;;;;;;;9.73;5.63;;;13.60;99.90;;;;;;5034088;28;20479;-91
2022/06/03 00:21:04;;;;;;;11.32;6.55;;;13.50;99.90;;;;;;5017435;28;20022;-93
2022/06/03 00:23:54;;;;;;;9.45;6.18;;;13.50;99.90;;;;;;4955902;28;20354;-95
2022/06/03 00:26:29;;;;;;;7.40;5.53;;;13.40;99.90;;;;;;4939586;29;20027;-94
2022/06/03 00:29:17;;;;;;;9.27;6.90;;;13.40;99.90;;;;;;4955109;28;20115;-93
2022/06/03 00:31:54;;;;;;;9.20;6.63;;;13.50;99.90;;;;;;4955090;28;20043;-93
2022/06/03 00:34:25;;;;;;;8.75;6.50;;;13.50;99.90;;;;;;4946109;28;20374;-95
2022/06/03 00:37:14;;;;;;;8.80;5.97;;;13.40;99.90;;;;;;4958338;28;20027;-94
2022/06/03 00:39:46;;;;;;;8.45;6.43;;;13.40;99.90;;;;;;4960967;28;20031;-93
2022/06/03 00:42:29;;;;;;;9.13;6.07;;;13.40;99.90;;;;;;4962099;28;20494;-92
2022/06/03 00:45:32;;;;;;;9.70;6.25;;;13.40;99.90;;;;;;4962079;28;20515;-94
2022/06/03 00:48:19;;;;;;;9.90;6.53;;;13.40;99.90;;;;;;4961914;28;20486;-94
2022/06/03 00:51:07;;;;;;;8.27;5.40;;;13.40;99.90;;;;;;4961481;28;20031;-92
2022/06/03 00:53:39;;;;;;;7.30;5.78;;;13.40;99.90;;;;;;4998711;28;20124;-93
2022/06/03 00:56:26;;;;;;;8.63;6.60;;;13.30;99.90;;;;;;5037167;28;20037;-92
2022/06/03 00:59:02;;;;;;;9.95;6.70;;;13.30;99.90;;;;;;5037833;28;20475;-94
2022/06/03 01:01:55;;;;;;;10.15;6.53;;;13.30;99.90;;;;;;5038189;28;20025;-92
2022/06/03 01:04:21;;;;;;;8.95;6.22;;;13.30;99.90;;;;;;5034034;28;20033;-93
2022/06/03 01:07:24;;;;;;;12.30;7.03;;;13.30;99.90;;;;;;5037192;28;20029;-93
2022/06/03 01:10:34;;;;;;;14.60;8.45;;;13.20;99.90;;;;;;5036991;28;20033;-92
2022/06/03 01:13:15;;;;;;;13.47;7.83;;;13.20;99.90;;;;;;5036981;28;20068;-94
2022/06/03 01:16:12;;;;;;;14.40;8.55;;;13.20;99.90;;;;;;5036889;28;20026;-92
2022/06/03 01:18:46;;;;;;;20.60;9.27;;;13.20;99.90;;;;;;5036998;28;20037;-93
2022/06/03 01:21:39;;;;;;;14.63;9.02;;;13.20;99.90;;;;;;5036781;28;20114;-92
2022/06/03 01:24:42;;;;;;;12.25;7.55;;;13.20;99.90;;;;;;5037715;28;20025;-93
2022/06/03 01:27:14;;;;;;;17.15;9.90;;;13.20;99.90;;;;;;5037327;28;20044;-94
2022/06/03 01:30:10;;;;;;;19.75;10.73;;;13.10;99.90;;;;;;5036638;28;20025;-93
2022/06/03 01:32:39;;;;;;;18.10;9.57;;;13.10;99.90;;;;;;5036464;28;20044;-92
2022/06/03 01:35:26;;;;;;;17.67;8.68;;;13.10;99.90;;;;;;5036307;28;20045;-92
2022/06/03 01:38:14;;;;;;;16.52;9.65;;;13.10;99.90;;;;;;5042093;28;20091;-93
2022/06/03 01:40:40;;;;;;;13.25;8.07;;;13.00;99.90;;;;;;5046494;28;20018;-93
2022/06/03 01:43:28;;;;;;;12.43;7.88;;;13.00;99.90;;;;;;5047982;28;20029;-93
2022/06/03 01:46:18;;;;;;;15.25;9.18;;;13.00;99.90;;;;;;5040763;28;20485;-94
2022/06/03 01:49:01;;;;;;;21.30;11.15;;;12.90;99.90;;;;;;5036830;28;20072;-94
2022/06/03 01:51:33;;;;;;;16.30;9.13;;;12.90;99.90;;;;;;5037557;28;20041;-93
2022/06/03 01:54:26;;;;;;;13.10;8.73;;;12.90;99.90;;;;;;5036604;28;20052;-93
2022/06/03 01:57:22;;;;;;;7.53;5.90;;;12.80;99.90;;;;;;5036689;28;20144;-93
2022/06/03 02:00:12;;;;;;;14.13;6.78;;;12.80;99.90;;;;;;5036683;28;20041;-93
2022/06/03 02:03:30;;;;;;;9.90;5.68;;;12.70;99.90;;;;;;5036754;28;20030;-93
2022/06/03 02:06:21;;;;;;;7.45;5.50;;;12.70;99.90;;;;;;5025078;28;20057;-95
2022/06/03 02:08:59;;;;;;;9.43;6.65;;;12.70;99.90;;;;;;5036375;28;20032;-94
2022/06/03 02:12:02;;;;;;;11.30;7.15;;;12.60;99.90;;;;;;5036535;28;20065;-94
2022/06/03 02:14:53;;;;;;;13.63;7.57;;;12.70;99.90;;;;;;5036736;28;20039;-90
2022/06/03 02:17:21;;;;;;;;;;;12.60;99.90;;;;;;5036540;28;20043;-94
2022/06/03 02:20:25;;;;;;;12.60;7.53;;;12.70;99.90;;;;;;5036317;28;19928;-92
2022/06/03 02:22:50;;;;;;;14.18;8.32;;;12.70;99.90;;;;;;5037597;28;20037;-93
2022/06/03 02:25:28;;;;;;;16.38;9.75;;;12.60;99.90;;;;;;5035860;28;20380;-94
2022/06/03 02:28:06;;;;;;;15.95;8.50;;;12.60;99.90;;;;;;5036215;28;20033;-93
2022/06/03 02:31:19;;;;;;;11.23;7.82;;;12.60;99.90;;;;;;5036225;28;20045;-93
2022/06/03 02:34:20;;;;;;;16.15;7.68;;;12.60;99.90;;;;;;5033739;28;20479;-94
2022/06/03 02:37:05;;;;;;;;;;;12.60;99.90;;;;;;5025014;28;20063;-94
2022/06/03 02:39:58;;;;;;;9.10;5.82;;;12.60;99.90;;;;;;5036344;28;19916;-93
2022/06/03 02:42:51;;;;;;;7.97;5.75;;;12.50;99.90;;;;;;5036091;28;20026;-94
2022/06/03 02:45:54;;;;;;;6.90;5.60;;;12.50;99.90;;;;;;5036132;28;20033;-93
2022/06/03 02:48:43;;;;;;;7.22;5.30;;;12.50;99.90;;;;;;5032158;28;20037;-94
2022/06/03 02:51:20;;;;;;;9.07;5.80;;;12.40;99.90;;;;;;5035697;28;20037;-94
2022/06/03 02:54:11;;;;;;;7.65;5.22;;;12.40;99.90;;;;;;5035439;28;20025;-93
2022/06/03 02:56:48;;;;;;;10.73;5.63;;;12.40;99.90;;;;;;5035851;28;20038;-94
2022/06/03 02:59:33;;;;;;;8.50;5.60;;;12.40;99.90;;;;;;5035686;28;20025;-92
2022/06/03 03:02:05;;;;;;;6.75;5.45;;;12.40;99.90;;;;;;5034327;28;20121;-93
2022/06/03 03:04:49;;;;;;;6.93;5.78;;;12.30;99.90;;;;;;5035341;28;20036;-92
2022/06/03 03:07:34;;;;;;;8.85;5.65;;;12.30;99.90;;;;;;5035060;28;20021;-92
2022/06/03 03:10:35;;;;;;;8.05;6.43;;;12.30;99.90;;;;;;5035482;28;20537;-93
2022/06/03 03:13:23;;;;;;;7.00;5.13;;;12.30;99.90;;;;;;5019074;28;20076;-92
2022/06/03 03:16:01;;;;;;;6.75;5.55;;;12.30;99.90;;;;;;5034561;28;20035;-93
2022/06/03 03:19:07;;;;;;;8.40;5.35;;;12.30;99.90;;;;;;5017555;28;20040;-92
2022/06/03 03:21:41;;;;;;;11.23;6.13;;;12.30;99.90;;;;;;5017568;28;20647;-92
2022/06/03 03:24:28;;;;;;;10.90;6.25;;;12.20;99.90;;;;;;5017523;28;20030;-91
2022/06/03 03:27:19;;;;;;;8.73;6.47;;;12.30;99.90;;;;;;5017229;28;20030;-95
2022/06/03 03:30:15;;;;;;;13.30;8.02;;;12.20;99.90;;;;;;5033145;28;20077;-92
2022/06/03 03:33:06;;;;;;;11.07;7.22;;;12.20;99.90;;;;;;5017343;28;20073;-93
2022/06/03 03:35:37;;;;;;;;;;;12.20;99.90;;;;;;5017793;28;20042;-93
2022/06/03 03:38:14;;;;;;;11.20;7.30;;;12.20;99.90;;;;;;5017387;28;19905;-94
2022/06/03 03:40:58;;;;;;;17.35;8.45;;;12.10;99.90;;;;;;5017300;28;20531;-93
2022/06/03 03:43:51;;;;;;;16.65;8.95;;;12.10;99.90;;;;;;5017376;28;20033;-93
2022/06/03 03:46:41;;;;;;;14.20;8.20;;;12.10;99.90;;;;;;5040377;28;20044;-92
2022/06/03 03:49:31;;;;;;;17.55;9.70;;;12.00;99.90;;;;;;5035185;28;20163;-93
2022/06/03 03:52:25;;;;;;;20.38;10.70;;;12.00;99.90;;;;;;5035450;28;20060;-93
2022/06/03 03:55:36;;;;;;;20.23;9.00;;;12.00;99.90;;;;;;5035476;28;20290;-93
2022/06/03 03:58:25;;;;;;;16.20;9.18;;;12.00;99.90;;;;;;5024396;28;20033;-93
2022/06/03 04:01:13;;;;;;;12.00;7.50;;;12.00;99.90;;;;;;5027310;28;20113;-93
2022/06/03 04:04:13;;;;;;;11.88;6.80;;;12.00;99.90;;;;;;5051295;28;20056;-91
2022/06/03 04:07:08;;;;;;;11.68;7.63;;;12.00;99.90;;;;;;5026130;28;20030;-93
2022/06/03 04:09:59;;;;;;;8.45;7.03;;;11.90;99.90;;;;;;5054034;28;20048;-93
2022/06/03 04:13:12;;;;;;;10.95;6.70;;;11.90;99.90;;;;;;5039478;28;20292;-92
2022/06/03 04:15:59;;;;;;;9.55;6.30;;;11.90;99.90;;;;;;5023389;28;20029;-94
2022/06/03 04:18:55;;;;;;;9.77;6.95;;;11.90;99.90;;;;;;5016970;28;20037;-92
2022/06/03 04:21:42;;;;;;;8.07;6.68;;;11.80;99.90;;;;;;5033611;28;20060;-92
2022/06/03 04:24:22;;;;;;;12.45;7.10;;;11.80;99.90;;;;;;5023826;28;20033;-93
2022/06/03 04:26:50;;;;;;;9.70;7.03;;;11.70;99.90;;;;;;5033381;28;20033;-93
2022/06/03 04:29:34;;;;;;;11.75;7.47;;;11.80;99.90;;;;;;5016565;28;20025;-94
2022/06/03 04:32:41;;;;;;;10.90;7.45;;;11.80;99.90;;;;;;5033299;28;20132;-91
2022/06/03 04:35:45;;;;;;;10.32;7.57;;;11.70;99.90;;;;;;5040877;28;20483;-93
2022/06/03 04:38:35;;;;;;;10.23;7.18;;;11.80;99.90;;;;;;5034686;28;20079;-94
2022/06/03 04:41:41;;;;;;;12.15;8.60;;;11.70;99.90;;;;;;5032766;28;20546;-93
2022/06/03 04:44:25;;;;;;;10.80;7.20;;;11.70;99.90;;;;;;5033924;28;20021;-93
2022/06/03 04:46:54;;;;;;;13.93;8.40;;;11.70;99.90;;;;;;5034197;28;20028;-93
2022/06/03 04:49:19;;;;;;;13.82;10.02;;;11.80;99.90;;;;;;5033950;28;20030;-93
2022/06/03 04:52:00;;;;;;;10.65;8.82;;;11.80;99.90;;;;;;5033653;28;20084;-92
2022/06/03 04:55:03;;;;;;;15.38;8.88;;;11.80;99.90;;;;;;5034132;28;20037;-93
2022/06/03 04:58:05;;;;;;;13.48;9.07;;;11.70;99.90;;;;;;5034268;28;20044;-94
2022/06/03 05:00:59;;;;;;;15.02;9.23;;;11.80;99.90;;;;;;5034322;28;20022;-93
2022/06/03 05:03:52;;;;;;;15.95;8.93;;;11.80;99.90;;;;;;5025948;28;20038;-92
2022/06/03 05:06:23;;;;;;;14.80;9.40;;;11.80;99.90;;;;;;5033728;28;20091;-93
2022/06/03 05:09:07;;;;;;;16.50;9.07;;;11.80;99.90;;;;;;5033546;28;20107;-92
2022/06/03 05:11:33;;;;;;;14.70;9.15;;;11.80;99.90;;;;;;5033534;28;20387;-92
2022/06/03 05:14:29;;;;;;;16.00;10.00;;;11.80;99.90;;;;;;5033775;28;20017;-93
2022/06/03 05:17:20;;;;;;;17.23;9.80;;;11.70;99.90;;;;;;5033762;28;20061;-91
2022/06/03 05:20:20;;;;;;;12.98;8.48;;;11.70;99.90;;;;;;5033810;28;20365;-93
2022/06/03 05:22:48;;;;;;;13.50;9.00;;;11.70;99.90;;;;;;5034006;28;20041;-93
2022/06/03 05:25:26;;;;;;;14.80;9.13;;;11.60;99.90;;;;;;5035663;28;20083;-93
2022/06/03 05:28:07;;;;;;;17.05;9.55;;;11.60;99.90;;;;;;5037338;28;20180;-93
2022/06/03 05:30:54;;;;;;;13.23;9.23;;;11.60;99.90;;;;;;5037365;28;20041;-93
2022/06/03 05:33:34;;;;;;;17.08;11.25;;;11.60;99.90;;;;;;5038466;28;20052;-92
2022/06/03 05:36:57;;;;;;;18.65;10.57;;;11.60;99.90;;;;;;5038087;28;20030;-93
2022/06/03 05:39:46;;;;;;;22.63;13.07;;;11.60;99.90;;;;;;5019612;28;20060;-93
2022/06/03 05:42:52;;;;;;;17.38;11.00;;;11.60;99.90;;;;;;5036132;28;20030;-94
2022/06/03 05:45:24;;;;;;;24.15;15.07;;;11.60;99.90;;;;;;4977071;28;20159;-93
2022/06/03 05:48:20;;;;;;;22.50;15.38;;;11.60;99.90;;;;;;4977699;28;20511;-92
2022/06/03 05:51:16;;;;;;;15.27;10.38;;;11.60;99.90;;;;;;4977027;28;20034;-94
2022/06/03 05:53:53;;;;;;;22.67;14.75;;;11.60;99.90;;;;;;4976974;28;20038;-92
2022/06/03 05:56:33;;;;;;;20.83;13.10;;;11.70;99.90;;;;;;4976649;28;20039;-93
2022/06/03 05:59:04;;;;;;;19.08;13.18;;;11.70;99.90;;;;;;4977088;28;20023;-92
2022/06/03 06:01:53;;;;;;;19.08;13.75;;;11.70;99.90;;;;;;4977048;28;20034;-91
2022/06/03 06:04:37;;;;;;;13.80;9.10;;;11.70;99.90;;;;;;4976846;28;20034;-92
2022/06/03 06:07:30;;;;;;;20.27;13.00;;;11.70;99.90;;;;;;4976531;28;20160;-93
2022/06/03 06:10:22;;;;;;;24.25;13.55;;;11.70;99.90;;;;;;4979457;28;20543;-91
2022/06/03 06:13:05;;;;;;;16.75;10.60;;;11.70;99.90;;;;;;4979643;28;20134;-92
2022/06/03 06:15:55;;;;;;;19.27;13.40;;;11.70;99.90;;;;;;4979291;28;20089;-92
2022/06/03 06:18:46;;;;;;;18.40;11.23;;;11.60;99.90;;;;;;4979620;28;20041;-91
2022/06/03 06:21:13;;;;;;;;;;;11.60;99.90;;;;;;5013177;28;20493;-92
2022/06/03 06:23:46;;;;;;;16.50;10.20;;;11.60;99.90;;;;;;5035486;28;20378;-93
2022/06/03 06:26:12;;;;;;;19.48;12.65;;;11.60;99.90;;;;;;5036108;28;20391;-92
2022/06/03 06:29:16;;;;;;;16.98;11.50;;;11.60;99.90;;;;;;5035928;28;20032;-92
2022/06/03 06:32:19;;;;;;;19.45;12.52;;;11.60;99.90;;;;;;5031589;28;20140;-92
2022/06/03 06:35:23;;;;;;;18.10;11.32;;;11.60;99.90;;;;;;5035151;28;20132;-91
2022/06/03 06:38:02;;;;;;;22.20;12.20;;;11.60;99.90;;;;;;5035497;28;20025;-90
2022/06/03 06:40:37;;;;;;;18.70;12.25;;;11.60;99.90;;;;;;5035492;28;20060;-92
2022/06/03 06:43:30;;;;;;;20.35;13.07;;;11.70;99.90;;;;;;5035346;28;20107;-91
2022/06/03 06:46:06;;;;;;;18.67;12.10;;;11.70;99.90;;;;;;5035790;28;20072;-90
2022/06/03 06:48:34;;;;;;;14.75;10.18;;;11.70;99.90;;;;;;5035679;28;20033;-90
2022/06/03 06:51:09;;;;;;;19.63;11.88;;;11.80;99.90;;;;;;5036101;28;20044;-91
2022/06/03 06:53:53;;;;;;;13.93;8.57;;;11.80;99.90;;;;;;5035104;28;20064;-92
2022/06/03 06:56:24;;;;;;;18.45;11.38;;;11.90;99.90;;;;;;5036181;28;20115;-91
2022/06/03 06:59:09;;;;;;;16.60;11.48;;;11.90;99.90;;;;;;5035457;28;20025;-92
2022/06/03 07:01:43;;;;;;;20.05;12.55;;;12.00;99.90;;;;;;5037493;28;20033;-91
2022/06/03 07:04:14;;;;;;;20.88;11.75;;;12.00;99.90;;;;;;5038056;28;20033;-92
2022/06/03 07:07:05;;;;;;;17.40;11.50;;;12.10;99.90;;;;;;5045452;28;20032;-93
2022/06/03 07:09:46;;;;;;;15.68;10.52;;;12.20;99.90;;;;;;5047184;28;20032;-92
2022/06/03 07:12:18;;;;;;;17.05;10.60;;;12.30;99.90;;;;;;5035457;28;20120;-92
2022/06/03 07:15:09;;;;;;;17.58;11.98;;;12.40;99.90;;;;;;5034563;28;20061;-91
2022/06/03 07:21:06;;;;;;;18.08;11.55;;;12.60;99.90;;;;;;5036876;28;20172;-91
2022/06/03 07:23:40;;;;;;;20.80;12.90;;;12.60;99.90;;;;;;5034326;28;20112;-91
2022/06/03 07:26:35;;;;;;;17.73;12.05;;;12.70;99.90;;;;;;5035644;28;20029;-90
2022/06/03 07:29:30;;;;;;;15.68;10.93;;;12.80;99.90;;;;;;5030896;28;20037;-92
2022/06/03 07:32:18;;;;;;;17.08;11.50;;;12.90;99.90;;;;;;5035332;28;20049;-90
2022/06/03 07:35:05;;;;;;;19.38;12.70;;;13.10;99.90;;;;;;5034900;28;20053;-91
2022/06/03 07:37:37;;;;;;;18.00;13.18;;;13.10;99.90;;;;;;5035910;28;20036;-90
2022/06/03 07:40:24;;;;;;;17.60;12.55;;;13.20;99.90;;;;;;5034504;28;20060;-90
2022/06/03 07:43:14;;;;;;;19.35;11.68;;;13.30;99.90;;;;;;5034783;28;20030;-91
2022/06/03 07:46:05;;;;;;;13.87;9.23;;;13.50;99.90;;;;;;5035880;28;20033;-89
2022/06/03 07:48:34;;;;;;;13.60;10.57;;;13.60;99.90;;;;;;5033645;28;20148;-91
2022/06/03 07:50:59;;;;;;;16.15;11.52;;;13.70;99.90;;;;;;5034012;28;20501;-89
2022/06/03 07:53:56;;;;;;;15.32;9.07;;;13.70;99.90;;;;;;5035122;28;20025;-90
2022/06/03 07:56:28;;;;;;;12.98;8.88;;;13.80;99.90;;;;;;5034474;28;20067;-91
2022/06/03 07:59:05;;;;;;;13.93;8.98;;;13.90;99.90;;;;;;5036027;28;20029;-89
2022/06/03 08:01:36;;;;;;;10.68;7.88;;;14.00;99.90;;;;;;5040465;28;20030;-91
2022/06/03 08:04:04;;;;;;;;;;;14.10;99.90;;;;;;5041794;28;20053;-91
2022/06/03 08:10:56;;;;;;;9.77;7.50;;;14.20;99.90;;;;;;5036325;28;19909;-90
2022/06/03 08:12:12;;;;;;;11.52;8.00;;;14.40;99.90;;;;;;5046368;28;20051;-92
2022/06/03 08:14:38;;;;;;;12.93;8.30;;;14.50;99.90;;;;;;5054975;28;20033;-90
2022/06/03 08:17:06;;;;;;;12.50;7.93;;;14.50;99.90;;;;;;5047432;28;20082;-90
2022/06/03 08:19:34;;;;;;;12.68;7.47;;;14.70;99.90;;;;;;5036761;28;20493;-90
2022/06/03 08:22:03;;;;;;;10.35;7.45;;;14.70;99.90;;;;;;5037288;28;20057;-90
2022/06/03 08:24:33;;;;;;;12.18;7.22;;;14.80;99.90;;;;;;5035470;28;20033;-90
2022/06/03 08:27:10;;;;;;;13.00;7.68;;;14.80;99.90;;;;;;5035959;28;20525;-90
2022/06/03 08:29:42;;;;;;;12.95;7.95;;;14.90;99.90;;;;;;5033897;28;20483;-90
2022/06/03 08:32:14;;;;;;;14.98;7.40;;;15.00;99.90;;;;;;5037603;28;20037;-90
2022/06/03 08:34:48;;;;;;;13.85;8.23;;;15.00;99.90;;;;;;5036285;28;20073;-90
2022/06/03 08:37:26;;;;;;;15.15;7.18;;;15.10;99.90;;;;;;5033387;28;20084;-89
2022/06/03 08:39:56;;;;;;;11.35;7.70;;;15.20;99.90;;;;;;5034152;28;20494;-92
2022/06/03 08:42:27;;;;;;;14.07;7.10;;;15.40;99.90;;;;;;5033710;28;20017;-91
2022/06/03 08:45:16;;;;;;;17.67;7.63;;;15.50;99.90;;;;;;5033523;28;20487;-92
2022/06/03 08:47:55;;;;;;;9.57;6.50;;;15.60;99.90;;;;;;5033542;28;20470;-92
2022/06/03 08:50:52;;;;;;;8.85;6.03;;;15.60;99.90;;;;;;5033202;28;20022;-91
2022/06/03 08:53:42;;;;;;;12.65;6.13;;;15.60;99.90;;;;;;5034860;28;20128;-91
2022/06/03 08:56:25;;;;;;;7.47;5.93;;;15.50;99.90;;;;;;5034452;28;20483;-91
2022/06/03 08:58:58;;;;;;;7.57;5.35;;;15.50;99.90;;;;;;5033701;28;20037;-91
2022/06/03 09:01:51;;;;;;;8.38;5.03;;;15.50;99.90;;;;;;5037403;28;20036;-90
2022/06/03 09:04:20;;;;;;;12.10;4.43;;;15.60;99.90;;;;;;5036623;28;20036;-91
2022/06/03 09:06:45;;;;;;;7.80;5.22;;;15.70;99.40;;;;;;5037081;28;20056;-90
2022/06/03 09:09:20;;;;;;;6.32;4.60;;;15.70;98.00;;;;;;5037024;28;20475;-91
2022/06/03 09:12:11;;;;;;;9.32;4.82;;;15.80;97.10;;;;;;5036790;28;20029;-92
2022/06/03 09:14:41;;;;;;;8.93;4.78;;;15.90;96.60;;;;;;5037081;28;20025;-92
2022/06/03 09:17:30;;;;;;;8.30;5.10;;;16.00;95.70;;;;;;5037087;28;20029;-91
2022/06/03 09:20:00;;;;;;;8.00;5.30;;;16.10;95.30;;;;;;5032901;28;20720;-91
2022/06/03 09:22:31;;;;;;;6.75;4.75;;;16.40;95.00;;;;;;5038913;28;20029;-91
2022/06/03 09:24:58;;;;;;;9.75;5.28;;;16.50;94.60;;;;;;5036828;28;20033;-89
2022/06/03 09:27:26;;;;;;;7.18;4.88;;;16.70;94.10;;;;;;5037078;28;20026;-91
2022/06/03 09:29:55;;;;;;;7.40;5.07;;;16.90;93.40;;;;;;5036943;28;20048;-92
2022/06/03 09:32:23;;;;;;;8.30;5.13;;;17.00;92.50;;;;;;5036511;28;20033;-92
2022/06/03 09:35:06;;;;;;;7.97;5.13;;;17.10;92.00;;;;;;5036265;28;20048;-92
2022/06/03 09:37:36;;;;;;;9.52;4.70;;;17.30;91.90;;;;;;5036783;28;20037;-91
2022/06/03 09:40:06;;;;;;;9.80;4.22;;;17.50;91.40;;;;;;5036706;28;20509;-91
2022/06/03 09:42:34;;;;;;;6.85;4.72;;;17.70;91.00;;;;;;5036446;28;20026;-90
2022/06/03 09:45:02;;;;;;;9.07;4.65;;;18.00;90.30;;;;;;5036617;28;20120;-93
2022/06/03 09:47:29;;;;;;;6.60;4.60;;;18.20;89.60;;;;;;5036635;28;20025;-92
2022/06/03 09:49:55;;;;;;;9.35;4.47;;;18.30;87.80;;;;;;5037200;28;20053;-93
2022/06/03 09:52:28;;;;;;;4.38;3.80;;;18.50;85.60;;;;;;5041275;28;20030;-92
2022/06/03 09:54:55;;;;;;;6.03;4.10;;;18.60;84.10;;;;;;5048479;28;20026;-91
2022/06/03 09:57:31;;;;;;;6.80;4.18;;;18.70;82.90;;;;;;5038767;28;20041;-93
2022/06/03 10:00:34;;;;;;;9.57;4.55;;;18.70;81.70;;;;;;5036398;28;20026;-91
2022/06/03 10:03:00;;;;;;;16.05;5.43;;;18.80;80.80;;;;;;5032777;28;20033;-90
2022/06/03 10:05:26;;;;;;;8.70;4.32;;;18.90;80.80;;;;;;5036526;28;20029;-91
2022/06/03 10:07:59;;;;;;;6.45;3.20;;;19.00;80.50;;;;;;5035829;28;20029;-93
2022/06/03 10:13:10;;;;;;;6.68;3.47;;;19.20;78.30;;;;;;5038347;28;20100;-91
2022/06/03 10:15:44;;;;;;;5.78;3.80;;;19.30;77.50;;;;;;5036362;28;20099;-91
2022/06/03 10:18:25;;;;;;;5.70;3.92;;;19.30;75.80;;;;;;5036497;28;20029;-91
2022/06/03 10:20:54;;;;;;;8.20;4.57;;;19.30;75.20;;;;;;5037290;28;20021;-91
2022/06/03 10:23:24;;;;;;;6.85;4.00;;;19.40;74.90;;;;;;5036245;28;20056;-91
2022/06/03 10:25:51;;;;;;;5.82;4.82;;;19.50;74.80;;;;;;5035912;28;20040;-92
2022/06/03 10:28:17;;;;;;;8.50;4.28;;;19.60;74.40;;;;;;5035531;28;20029;-91
2022/06/03 10:30:45;;;;;;;7.45;4.15;;;19.70;73.60;;;;;;5038404;28;20110;-92
2022/06/03 10:33:19;;;;;;;6.03;3.95;;;19.70;72.90;;;;;;5035919;28;20056;-91
2022/06/03 10:35:46;;;;;;;6.22;4.00;;;19.90;72.10;;;;;;5037205;28;20030;-92
2022/06/03 10:38:16;;;;;;;9.63;3.78;;;19.90;71.40;;;;;;5035212;28;20032;-91
2022/06/03 10:40:46;;;;;;;6.25;4.25;;;19.90;70.40;;;;;;5035283;28;20037;-91
2022/06/03 10:43:19;;;;;;;5.05;3.63;;;20.00;70.20;;;;;;5035398;28;20032;-90
2022/06/03 10:45:45;;;;;;;4.72;3.05;;;20.10;70.20;;;;;;5035506;28;20187;-90
2022/06/03 10:48:22;;;;;;;5.90;2.90;;;20.20;70.00;;;;;;5035472;28;20026;-92
2022/06/03 10:50:49;;;;;;;4.63;2.92;;;20.30;69.50;;;;;;5035498;28;20032;-92
2022/06/03 11:01:59;;;;;;;4.72;3.00;;;20.50;66.20;;;;;;5040641;28;20037;-92
2022/06/03 11:04:38;;;;;;;10.25;3.63;;;20.60;65.90;;;;;;5034636;28;20103;-92
2022/06/03 11:07:29;;;;;;;8.50;3.80;;;20.80;66.00;;;;;;5037242;28;20029;-92
2022/06/03 11:10:01;;;;;;;7.28;3.92;;;21.00;65.90;;;;;;5034991;28;20025;-92
2022/06/03 11:12:29;;;;;;;5.72;2.95;;;21.00;65.40;;;;;;5035245;28;20112;-94
2022/06/03 11:14:58;;;;;;;9.20;2.80;;;21.00;66.30;;;;;;5034976;28;20021;-91
2022/06/03 11:17:34;;;;;;;6.32;3.42;;;21.20;65.50;;;;;;5034695;28;20029;-91
2022/06/03 11:20:00;;;;;;;5.57;3.28;;;21.40;65.50;;;;;;5035125;28;20487;-93
2022/06/03 11:22:36;;;;;;;4.63;3.03;;;21.60;65.20;;;;;;5036433;28;20108;-91
2022/06/03 11:25:30;;;;;;;3.88;2.95;;;21.70;64.30;;;;;;5034597;28;20029;-91
2022/06/03 11:28:07;;;;;;;5.82;3.58;;;21.90;64.10;;;;;;5034656;28;20068;-93
2022/06/03 11:30:46;;;;;;;7.60;3.25;;;22.00;63.40;;;;;;5034414;28;20093;-91
2022/06/03 11:33:19;;;;;;;4.03;2.80;;;22.00;63.10;;;;;;5034478;28;20033;-93
2022/06/03 11:35:52;;;;;;;4.22;2.65;;;22.00;62.80;;;;;;5034226;28;20562;-92
2022/06/03 11:38:28;;;;;;;8.75;3.42;;;22.00;62.10;;;;;;5036751;28;20037;-91
2022/06/03 11:40:57;;;;;;;6.07;4.30;;;22.00;62.40;;;;;;5034865;28;20017;-93
2022/06/03 11:43:38;;;;;;;10.23;4.15;;;22.20;62.30;;;;;;5035004;28;20079;-93
2022/06/03 11:46:14;;;;;;;6.18;3.08;;;22.40;61.70;;;;;;5035078;28;20097;-90
2022/06/03 11:48:44;;;;;;;7.63;3.92;;;22.50;61.80;;;;;;5034422;28;20029;-92
2022/06/03 11:51:12;;;;;;;7.80;4.15;;;22.50;61.90;;;;;;5034190;28;20063;-91
2022/06/03 11:53:42;;;;;;;10.82;4.72;;;22.30;61.50;;;;;;5034634;28;20497;-92
2022/06/03 11:56:10;;;;;;;6.60;4.47;;;22.10;61.90;;;;;;5033794;28;20028;-91
2022/06/03 11:58:58;;;;;;;7.65;4.10;;;21.90;61.90;;;;;;5034155;28;20260;-91
2022/06/03 12:01:27;;;;;;;11.48;4.05;;;21.90;62.10;;;;;;5034196;28;20034;-91
2022/06/03 12:04:14;;;;;;;7.22;3.60;;;22.00;62.40;;;;;;5035064;28;20040;-91
2022/06/03 12:07:08;;;;;;;5.72;3.30;;;21.80;61.60;;;;;;5040688;28;20022;-91
2022/06/03 12:09:49;;;;;;;9.95;4.80;;;21.80;61.50;;;;;;5037128;28;20025;-92
2022/06/03 12:15:33;;;;;;;10.27;3.97;;;21.80;61.90;;;;;;5041938;28;20097;-91
2022/06/03 12:18:11;;;;;;;8.82;3.40;;;22.00;61.60;;;;;;5043884;28;20053;-92
2022/06/03 12:20:52;;;;;;;5.50;3.30;;;22.00;61.00;;;;;;5044915;28;20048;-94
2022/06/03 12:23:17;;;;;;;5.47;3.10;;;22.00;60.20;;;;;;5040467;28;20104;-92
2022/06/03 12:25:51;;;;;;;5.72;3.97;;;21.90;59.70;;;;;;5038243;28;20029;-91
2022/06/03 12:28:42;;;;;;;6.32;3.35;;;21.80;59.70;;;;;;5034846;28;20264;-92
2022/06/03 12:31:15;;;;;;;5.00;2.35;;;21.70;59.90;;;;;;5036352;28;20033;-91
2022/06/03 12:34:02;;;;;;;4.43;2.88;;;21.80;60.10;;;;;;5040497;28;20041;-92
2022/06/03 12:36:52;;;;;;;3.30;2.08;;;22.00;59.40;;;;;;5042849;28;20025;-94
2022/06/03 12:39:55;;;;;;;3.63;2.15;;;22.20;58.70;;;;;;5041497;28;20025;-94
2022/06/03 12:42:27;;;;;;;5.60;1.88;;;22.30;57.30;;;;;;5043233;28;20049;-93
2022/06/03 12:45:03;;;;;;;4.47;2.35;;;22.30;56.70;;;;;;5059047;28;20101;-93
2022/06/03 12:47:31;;;;;;;4.00;2.33;;;22.40;56.10;;;;;;5049527;28;20025;-93
2022/06/03 12:50:25;;;;;;;3.20;2.10;;;22.30;55.60;;;;;;5040798;28;20068;-94
2022/06/03 12:52:57;;;;;;;2.78;2.20;;;22.30;55.50;;;;;;5037796;28;20033;-93
2022/06/03 12:55:34;;;;;;;4.20;2.38;;;22.50;55.70;;;;;;5040848;28;20507;-92
2022/06/03 12:58:20;;;;;;;4.72;2.47;;;22.80;56.00;;;;;;5040496;28;20101;-94
2022/06/03 13:00:51;;;;;;;3.13;2.00;;;23.00;55.80;;;;;;5040683;28;20017;-95
2022/06/03 13:03:17;;;;;;;4.75;3.22;;;23.20;55.80;;;;;;5041309;28;20035;-93
2022/06/03 13:05:45;;;;;;;4.30;3.30;;;23.50;55.60;;;;;;5040139;28;20458;-94
2022/06/03 13:08:26;;;;;;;4.13;2.97;;;23.40;55.10;;;;;;5041360;28;20038;-94
2022/06/03 13:11:00;;;;;;;4.55;2.85;;;23.50;55.40;;;;;;5045044;28;20026;-96
2022/06/03 13:13:35;;;;;;;8.60;3.85;;;23.40;55.40;;;;;;5047665;28;20036;-94
2022/06/03 13:16:31;;;;;;;6.18;3.40;;;23.60;55.40;;;;;;5045425;28;20055;-93
2022/06/03 13:19:19;;;;;;;4.68;3.38;;;23.60;54.90;;;;;;5039986;28;20038;-92
2022/06/03 13:21:56;;;;;;;7.80;3.45;;;23.40;54.80;;;;;;5039852;28;20101;-92
2022/06/03 13:24:32;;;;;;;6.93;3.65;;;23.40;55.20;;;;;;5039539;28;20037;-92
2022/06/03 13:26:58;;;;;;;10.73;4.30;;;23.50;55.50;;;;;;5040485;28;20029;-92
2022/06/03 13:29:49;;;;;;;6.88;3.35;;;23.50;55.70;;;;;;5039969;28;20029;-93
2022/06/03 13:32:21;;;;;;;;;;;23.30;55.70;;;;;;5041064;28;20044;-92
2022/06/03 13:34:47;;;;;;;7.60;4.40;;;23.30;56.60;;;;;;5041079;28;19955;-92
2022/06/03 13:37:20;;;;;;;6.80;4.57;;;23.20;56.80;;;;;;5040819;28;20028;-91
2022/06/03 13:40:07;;;;;;;10.70;4.38;;;23.00;56.90;;;;;;5041423;28;20044;-94
2022/06/03 13:43:07;;;;;;;8.63;5.30;;;22.80;56.70;;;;;;5040206;28;20060;-91
2022/06/03 13:45:55;;;;;;;8.45;5.57;;;22.60;57.20;;;;;;5036077;28;20124;-94
2022/06/03 13:48:49;;;;;;;7.40;4.40;;;22.60;57.40;;;;;;5037500;28;20034;-91
2022/06/03 13:51:29;;;;;;;9.25;4.50;;;22.50;57.60;;;;;;5036436;28;20042;-93
2022/06/03 13:54:00;;;;;;;;;;;22.50;57.90;;;;;;5042935;28;20084;-92
2022/06/03 13:56:28;;;;;;;5.03;3.45;;;22.50;57.80;;;;;;5039895;28;19905;-94
2022/06/03 13:58:56;;;;;;;6.13;4.15;;;22.40;57.80;;;;;;5038042;28;20075;-93
2022/06/03 14:01:42;;;;;;;11.40;3.90;;;22.40;57.70;;;;;;5037273;28;20025;-91
2022/06/03 14:04:21;;;;;;;5.90;3.53;;;22.50;57.90;;;;;;5039280;28;20022;-94
2022/06/03 14:07:08;;;;;;;5.80;3.10;;;22.60;58.00;;;;;;5036680;28;20029;-90
2022/06/03 14:09:38;;;;;;;5.90;3.10;;;22.70;58.00;;;;;;5036744;28;20026;-92
2022/06/03 14:12:07;;;;;;;8.02;4.53;;;22.60;57.90;;;;;;5037631;28;20394;-91
2022/06/03 14:14:45;;;;;;;7.07;4.38;;;22.50;58.20;;;;;;5037704;28;20061;-91
2022/06/03 14:17:12;;;;;;;5.05;3.45;;;22.50;58.50;;;;;;5037508;28;20124;-93